createdAt,value
2022-08-03T00:01:41.917Z,65.00
2022-08-03T00:04:10.684Z,65.00
2022-08-03T00:06:38.692Z,65.10
2022-08-03T00:09:06.739Z,65.10
2022-08-03T00:11:34.571Z,65.10
2022-08-03T00:14:02.193Z,65.10
2022-08-03T00:16:29.785Z,65.10
2022-08-03T00:18:57.333Z,65.10
2022-08-03T00:21:24.899Z,65.10
2022-08-03T00:23:52.998Z,65.10
2022-08-03T00:26:22.093Z,65.10
2022-08-03T00:28:50.503Z,65.00
2022-08-03T00:31:22.353Z,65.10
2022-08-03T00:34:06.147Z,65.10
2022-08-03T00:36:34.428Z,65.10
2022-08-03T00:39:01.888Z,65.10
2022-08-03T00:41:29.394Z,65.10
2022-08-03T00:43:56.885Z,65.10
2022-08-03T00:46:24.318Z,65.10
2022-08-03T00:48:52.498Z,65.00
2022-08-03T00:51:21.942Z,65.00
2022-08-03T00:53:50.322Z,65.00
2022-08-03T00:56:18.121Z,65.00
2022-08-03T00:58:47.026Z,65.10
2022-08-03T01:01:14.875Z,65.10
2022-08-03T01:03:42.605Z,65.10
2022-08-03T01:06:18.530Z,65.00
2022-08-03T01:08:57.897Z,65.00
2022-08-03T01:12:00.643Z,65.00
2022-08-03T01:14:38.458Z,65.00
2022-08-03T01:17:23.521Z,65.00
2022-08-03T01:19:58.075Z,65.00
2022-08-03T01:22:57.951Z,65.10
2022-08-03T01:26:06.881Z,65.00
2022-08-03T01:28:53.303Z,65.00
2022-08-03T01:31:26.370Z,65.00
2022-08-03T01:34:00.500Z,65.00
2022-08-03T01:36:34.132Z,65.00
2022-08-03T01:39:05.181Z,65.00
2022-08-03T01:41:34.127Z,65.00
2022-08-03T01:44:28.544Z,65.00
2022-08-03T01:46:54.776Z,65.10
2022-08-03T01:49:23.502Z,65.10
2022-08-03T01:52:02.946Z,65.10
2022-08-03T01:54:34.981Z,65.00
2022-08-03T01:57:03.900Z,65.10
2022-08-03T01:59:34.697Z,65.10
2022-08-03T02:02:25.184Z,65.10
2022-08-03T02:04:52.928Z,65.10
2022-08-03T02:07:20.869Z,65.00
2022-08-03T02:09:52.044Z,65.10
2022-08-03T02:12:21.411Z,65.00
2022-08-03T02:14:50.542Z,65.10
2022-08-03T02:17:39.743Z,65.10
2022-08-03T02:20:12.338Z,65.00
2022-08-03T02:22:44.910Z,65.10
2022-08-03T02:25:13.929Z,65.10
2022-08-03T02:27:48.972Z,65.10
2022-08-03T02:30:16.703Z,65.10
2022-08-03T02:32:51.799Z,65.10
2022-08-03T02:35:22.921Z,65.10
2022-08-03T02:37:58.218Z,65.10
2022-08-03T02:40:28.171Z,65.10
2022-08-03T02:43:00.600Z,65.10
2022-08-03T02:45:29.635Z,65.50
2022-08-03T02:48:02.977Z,65.10
2022-08-03T02:50:32.343Z,65.10
2022-08-03T02:53:01.659Z,65.10
2022-08-03T02:55:30.642Z,65.20
2022-08-03T02:58:00.907Z,65.10
2022-08-03T03:00:31.610Z,65.20
2022-08-03T03:03:01.926Z,65.20
2022-08-03T03:05:54.491Z,65.20
2022-08-03T03:08:25.723Z,65.20
2022-08-03T03:10:56.589Z,65.20
2022-08-03T03:13:24.935Z,65.20
2022-08-03T03:15:54.197Z,65.20
2022-08-03T03:18:23.228Z,65.20
2022-08-03T03:20:53.313Z,65.20
2022-08-03T03:23:25.214Z,65.20
2022-08-03T03:25:53.462Z,65.30
2022-08-03T03:28:21.123Z,65.20
2022-08-03T03:30:52.870Z,65.30
2022-08-03T03:33:22.267Z,65.20
2022-08-03T03:35:50.406Z,65.30
2022-08-03T03:38:18.615Z,65.20
2022-08-03T03:40:46.559Z,65.30
2022-08-03T03:43:14.170Z,65.30
2022-08-03T03:45:43.244Z,65.20
2022-08-03T03:48:11.197Z,65.30
2022-08-03T03:50:42.054Z,65.30
2022-08-03T03:53:11.549Z,65.30
2022-08-03T03:56:01.207Z,65.30
2022-08-03T03:58:27.969Z,65.40
2022-08-03T04:00:55.545Z,65.40
2022-08-03T04:03:23.105Z,65.30
2022-08-03T04:06:09.581Z,65.40
2022-08-03T04:08:55.364Z,65.30
2022-08-03T04:11:31.998Z,65.30
2022-08-03T04:14:13.456Z,65.40
2022-08-03T04:16:45.232Z,65.40
2022-08-03T04:19:22.944Z,65.40
2022-08-03T04:21:57.298Z,65.40
2022-08-03T04:24:30.791Z,65.30
2022-08-03T04:27:00.997Z,65.40
2022-08-03T04:29:31.174Z,65.40
2022-08-03T04:32:00.304Z,65.40
2022-08-03T04:34:28.589Z,65.40
2022-08-03T04:37:00.774Z,65.30
2022-08-03T04:39:31.962Z,65.50
2022-08-03T04:42:08.789Z,65.40
2022-08-03T04:44:40.712Z,65.40
2022-08-03T04:47:08.831Z,65.40
2022-08-03T04:49:40.309Z,65.40
2022-08-03T04:52:10.283Z,65.40
2022-08-03T04:54:45.861Z,65.40
2022-08-03T04:57:22.836Z,65.40
2022-08-03T05:00:02.059Z,65.40
2022-08-03T05:02:31.925Z,65.40
2022-08-03T05:04:59.870Z,65.40
2022-08-03T05:07:35.673Z,65.40
2022-08-03T05:10:16.507Z,65.40
2022-08-03T05:12:45.804Z,65.40
2022-08-03T05:15:13.462Z,65.40
2022-08-03T05:17:41.052Z,65.40
2022-08-03T05:20:09.228Z,65.40
2022-08-03T05:22:36.751Z,65.40
2022-08-03T05:25:04.549Z,65.40
2022-08-03T05:27:32.000Z,65.40
2022-08-03T05:30:31.022Z,65.50
2022-08-03T05:32:46.961Z,65.40
2022-08-03T05:36:01.011Z,65.40
2022-08-03T05:38:03.711Z,65.40
2022-08-03T05:40:31.397Z,65.50
2022-08-03T05:42:58.957Z,65.50
2022-08-03T05:45:28.369Z,65.50
2022-08-03T05:47:56.260Z,65.50
2022-08-03T05:50:24.275Z,65.50
2022-08-03T05:52:51.739Z,65.50
2022-08-03T05:55:19.353Z,65.50
2022-08-03T05:57:49.294Z,65.50
2022-08-03T06:00:17.511Z,65.50
2022-08-03T06:02:46.541Z,65.50
2022-08-03T06:05:14.129Z,65.70
2022-08-03T06:07:41.622Z,65.60
2022-08-03T06:10:35.817Z,65.70
2022-08-03T06:12:57.205Z,65.70
2022-08-03T06:15:24.701Z,65.60
2022-08-03T06:17:52.785Z,65.60
2022-08-03T06:20:21.242Z,65.50
2022-08-03T06:23:00.211Z,65.80
2022-08-03T06:25:29.212Z,65.80
2022-08-03T06:27:57.190Z,65.70
2022-08-03T06:30:24.908Z,65.70
2022-08-03T06:32:52.609Z,65.70
2022-08-03T06:35:20.622Z,65.70
2022-08-03T06:37:51.893Z,65.60
2022-08-03T06:40:29.895Z,65.60
2022-08-03T06:43:01.977Z,65.60
2022-08-03T06:45:31.653Z,65.70
2022-08-03T06:48:09.585Z,65.60
2022-08-03T06:50:39.044Z,65.70
2022-08-03T06:53:06.648Z,65.70
2022-08-03T06:55:34.099Z,65.70
2022-08-03T06:58:09.773Z,65.80
2022-08-03T07:00:37.285Z,65.80
2022-08-03T07:03:04.796Z,66.00
2022-08-03T07:05:35.231Z,65.90
2022-08-03T07:08:03.447Z,65.90
2022-08-03T07:10:31.012Z,66.10
2022-08-03T07:12:58.473Z,66.20
2022-08-03T07:15:55.363Z,66.20
2022-08-03T07:18:13.575Z,66.20
2022-08-03T07:20:41.214Z,66.30
2022-08-03T07:23:10.026Z,66.40
2022-08-03T07:25:43.550Z,66.30
2022-08-03T07:28:10.999Z,66.60
2022-08-03T07:30:38.594Z,66.40
2022-08-03T07:33:06.069Z,66.40
2022-08-03T07:35:33.580Z,66.40
2022-08-03T07:38:01.242Z,66.30
2022-08-03T07:40:31.605Z,66.20
2022-08-03T07:43:00.099Z,66.30
2022-08-03T07:45:27.618Z,66.30
2022-08-03T07:47:55.073Z,66.30
2022-08-03T07:50:23.082Z,66.40
2022-08-03T07:52:52.288Z,66.20
2022-08-03T07:55:21.798Z,66.30
2022-08-03T07:58:10.142Z,66.30
2022-08-03T08:00:37.918Z,66.50
2022-08-03T08:03:05.927Z,66.40
2022-08-03T08:05:34.015Z,66.70
2022-08-03T08:08:02.196Z,66.60
2022-08-03T08:10:32.838Z,66.70
2022-08-03T08:13:00.364Z,66.70
2022-08-03T08:15:28.566Z,66.60
2022-08-03T08:17:58.835Z,66.50
2022-08-03T08:20:30.746Z,66.60
2022-08-03T08:23:09.595Z,66.40
2022-08-03T08:25:52.655Z,66.40
2022-08-03T08:28:32.337Z,66.40
2022-08-03T08:31:01.508Z,66.40
2022-08-03T08:33:42.044Z,66.40
2022-08-03T08:36:15.861Z,66.30
2022-08-03T08:38:45.194Z,66.20
2022-08-03T08:41:14.814Z,66.10
2022-08-03T08:43:43.049Z,66.40
2022-08-03T08:46:23.497Z,66.50
2022-08-03T08:48:52.552Z,66.30
2022-08-03T08:51:22.065Z,66.40
2022-08-03T08:53:54.013Z,66.50
2022-08-03T08:56:25.774Z,66.50
2022-08-03T08:58:58.207Z,66.50
2022-08-03T09:01:25.795Z,66.50
2022-08-03T09:03:54.439Z,66.30
2022-08-03T09:06:22.972Z,66.40
2022-08-03T09:08:50.428Z,66.40
2022-08-03T09:11:51.561Z,66.40
2022-08-03T09:14:39.378Z,66.50
2022-08-03T09:17:03.913Z,66.60
2022-08-03T09:19:33.194Z,66.60
2022-08-03T09:22:16.889Z,66.40
2022-08-03T09:25:22.699Z,66.30
2022-08-03T09:27:47.517Z,66.60
2022-08-03T09:30:33.300Z,66.70
2022-08-03T09:33:03.926Z,67.00
2022-08-03T09:38:26.431Z,66.90
2022-08-03T09:40:59.526Z,66.90
2022-08-03T09:43:28.355Z,67.00
2022-08-03T09:46:07.744Z,67.00
2022-08-03T09:48:36.984Z,67.10
2022-08-03T09:51:32.341Z,67.10
2022-08-03T09:53:59.480Z,67.20
2022-08-03T09:56:41.645Z,66.60
2022-08-03T09:59:10.671Z,66.70
2022-08-03T10:01:41.836Z,67.70
2022-08-03T10:04:15.131Z,67.40
2022-08-03T10:07:01.437Z,67.30
2022-08-03T10:09:28.930Z,67.70
2022-08-03T10:11:56.696Z,67.80
2022-08-03T10:14:26.632Z,67.90
2022-08-03T10:16:54.047Z,67.80
2022-08-03T10:19:21.649Z,67.50
2022-08-03T10:21:58.803Z,67.60
2022-08-03T10:24:29.896Z,67.80
2022-08-03T10:27:03.019Z,67.60
2022-08-03T10:29:43.047Z,67.40
2022-08-03T10:32:19.377Z,66.80
2022-08-03T10:34:49.869Z,66.70
2022-08-03T10:37:18.451Z,67.00
2022-08-03T10:39:54.921Z,66.60
2022-08-03T10:42:24.931Z,67.20
2022-08-03T10:45:03.008Z,67.60
2022-08-03T10:47:31.954Z,67.40
2022-08-03T10:50:00.290Z,67.40
2022-08-03T10:52:31.481Z,67.60
2022-08-03T10:55:19.926Z,67.40
2022-08-03T10:57:58.345Z,67.80
2022-08-03T11:00:30.265Z,67.30
2022-08-03T11:03:14.640Z,67.30
2022-08-03T11:05:44.712Z,67.70
2022-08-03T11:08:31.179Z,67.10
2022-08-03T11:11:18.446Z,66.90
2022-08-03T11:14:04.897Z,66.60
2022-08-03T11:16:35.982Z,66.30
2022-08-03T11:19:06.681Z,66.30
2022-08-03T11:21:49.485Z,66.20
2022-08-03T11:24:41.449Z,66.20
2022-08-03T11:27:15.287Z,66.10
2022-08-03T11:30:09.475Z,66.10
2022-08-03T11:32:49.037Z,66.30
2022-08-03T11:35:21.911Z,66.00
2022-08-03T11:38:03.123Z,66.10
2022-08-03T11:40:48.739Z,66.30
2022-08-03T11:43:48.523Z,66.20
2022-08-03T11:46:29.759Z,66.30
2022-08-03T11:49:09.873Z,66.10
2022-08-03T11:51:38.948Z,66.20
2022-08-03T11:54:07.995Z,66.10
2022-08-03T11:56:45.627Z,66.00
2022-08-03T11:59:20.255Z,65.80
2022-08-03T12:01:49.001Z,66.10
2022-08-03T12:04:16.633Z,66.00
2022-08-03T12:06:59.596Z,65.70
2022-08-03T12:09:27.185Z,65.70
2022-08-03T12:12:00.182Z,65.80
2022-08-03T12:14:48.455Z,65.90
2022-08-03T12:17:17.723Z,65.90
2022-08-03T12:19:45.764Z,65.80
2022-08-03T12:22:13.896Z,65.80
2022-08-03T12:24:46.741Z,65.90
2022-08-03T12:27:25.416Z,65.90
2022-08-03T12:29:58.444Z,65.70
2022-08-03T12:32:28.509Z,65.70
2022-08-03T12:35:06.087Z,65.60
2022-08-03T12:37:33.761Z,65.80
2022-08-03T12:40:09.346Z,65.70
2022-08-03T12:42:39.288Z,65.60
2022-08-03T12:45:27.594Z,65.60
2022-08-03T12:48:02.298Z,65.70
2022-08-03T12:50:37.662Z,65.70
2022-08-03T12:53:08.964Z,65.60
2022-08-03T12:56:04.557Z,65.60
2022-08-03T12:58:35.478Z,65.60
2022-08-03T13:01:09.995Z,66.10
2022-08-03T13:03:49.763Z,65.50
2022-08-03T13:06:20.340Z,65.60
2022-08-03T13:08:48.550Z,65.60
2022-08-03T13:11:53.521Z,65.60
2022-08-03T13:14:19.662Z,65.60
2022-08-03T13:16:49.388Z,65.50
2022-08-03T13:19:17.095Z,65.70
2022-08-03T13:22:03.601Z,65.60
2022-08-03T13:24:33.159Z,66.40
2022-08-03T13:27:22.025Z,67.20
2022-08-03T13:29:48.923Z,66.50
2022-08-03T13:32:16.696Z,65.80
2022-08-03T13:34:44.185Z,65.80
2022-08-03T13:37:12.331Z,65.60
2022-08-03T13:39:57.401Z,65.60
2022-08-03T13:42:26.403Z,65.70
2022-08-03T13:44:53.832Z,65.70
2022-08-03T13:47:21.550Z,65.70
2022-08-03T13:50:00.026Z,65.60
2022-08-03T13:52:38.738Z,65.70
2022-08-03T13:55:07.600Z,65.60
2022-08-03T13:58:04.488Z,65.60
2022-08-03T14:00:29.223Z,65.50
2022-08-03T14:03:05.253Z,65.60
2022-08-03T14:05:33.446Z,65.50
2022-08-03T14:08:04.011Z,66.20
2022-08-03T14:10:34.654Z,65.60
2022-08-03T14:13:02.242Z,65.50
2022-08-03T14:15:29.805Z,65.60
2022-08-03T14:17:58.389Z,65.70
2022-08-03T14:20:38.821Z,65.60
2022-08-03T14:23:15.708Z,65.60
2022-08-03T14:25:51.993Z,65.70
2022-08-03T14:28:23.249Z,65.60
2022-08-03T14:30:56.141Z,65.70
2022-08-03T14:33:24.546Z,65.60
2022-08-03T14:35:52.831Z,65.70
2022-08-03T14:38:20.865Z,65.80
2022-08-03T14:40:50.175Z,65.70
2022-08-03T14:43:21.541Z,65.60
2022-08-03T14:45:52.471Z,65.80
2022-08-03T14:50:28.637Z,65.80
2022-08-03T14:51:08.720Z,65.80
2022-08-03T14:53:36.225Z,65.80
2022-08-03T14:56:07.995Z,65.80
2022-08-03T14:58:37.500Z,65.70
2022-08-03T15:02:03.260Z,65.80
2022-08-03T15:03:52.360Z,65.80
2022-08-03T15:06:19.891Z,65.80
2022-08-03T15:09:05.965Z,65.90
2022-08-03T15:11:35.262Z,65.80
2022-08-03T15:14:07.316Z,65.90
2022-08-03T15:16:36.666Z,65.80
2022-08-03T15:19:04.955Z,65.80
2022-08-03T15:21:51.949Z,65.70
2022-08-03T15:24:19.723Z,65.70
2022-08-03T15:26:47.254Z,65.90
2022-08-03T15:30:05.395Z,65.80
2022-08-03T15:32:05.012Z,65.90
2022-08-03T15:34:36.310Z,65.90
2022-08-03T15:37:15.067Z,65.90
2022-08-03T15:39:58.303Z,65.90
2022-08-03T15:42:29.844Z,66.50
2022-08-03T15:44:57.609Z,66.00
2022-08-03T15:47:25.481Z,65.80
2022-08-03T15:49:53.077Z,65.90
2022-08-03T15:52:20.573Z,65.90
2022-08-03T15:54:47.991Z,65.80
2022-08-03T15:57:15.505Z,65.90
2022-08-03T15:59:44.076Z,65.90
2022-08-03T16:02:11.809Z,65.80
2022-08-03T16:04:39.237Z,65.80
2022-08-03T16:07:06.848Z,65.80
2022-08-03T16:09:43.396Z,65.90
2022-08-03T16:12:16.444Z,66.00
2022-08-03T16:14:52.712Z,66.00
2022-08-03T16:17:22.180Z,66.30
2022-08-03T16:19:52.121Z,66.20
2022-08-03T16:22:19.746Z,66.20
2022-08-03T16:24:54.433Z,66.20
2022-08-03T16:27:56.754Z,66.40
2022-08-03T16:30:13.444Z,66.10
2022-08-03T16:32:41.027Z,66.00
2022-08-03T16:35:08.801Z,66.10
2022-08-03T16:37:38.611Z,66.20
2022-08-03T16:40:17.275Z,66.20
2022-08-03T16:42:47.749Z,66.20
2022-08-03T16:45:15.371Z,66.30
2022-08-03T16:47:43.022Z,66.20
2022-08-03T16:50:17.510Z,66.10
2022-08-03T16:52:48.411Z,66.20
2022-08-03T16:55:48.936Z,66.20
2022-08-03T16:58:07.050Z,66.30
2022-08-03T17:00:41.637Z,66.20
2022-08-03T17:03:18.803Z,66.20
2022-08-03T17:05:50.113Z,66.30
2022-08-03T17:08:18.977Z,66.90
2022-08-03T17:10:56.579Z,66.30
2022-08-03T17:13:38.857Z,66.40
2022-08-03T17:16:09.609Z,66.20
2022-08-03T17:18:51.131Z,66.20
2022-08-03T17:21:29.414Z,66.10
2022-08-03T17:24:12.141Z,66.20
2022-08-03T17:26:44.759Z,66.20
2022-08-03T17:29:14.095Z,66.20
2022-08-03T17:31:48.899Z,66.20
2022-08-03T17:34:17.829Z,66.20
2022-08-03T17:37:04.738Z,66.20
2022-08-03T17:39:57.817Z,66.10
2022-08-03T17:42:26.925Z,65.80
2022-08-03T17:44:58.004Z,66.00
2022-08-03T17:47:29.197Z,66.00
2022-08-03T17:50:24.629Z,66.10
2022-08-03T17:53:23.520Z,66.10
2022-08-03T17:56:44.508Z,66.10
2022-08-03T17:59:51.373Z,66.10
2022-08-03T18:03:16.598Z,66.20
2022-08-03T18:06:10.562Z,66.10
2022-08-03T18:10:03.700Z,66.20
2022-08-03T18:11:59.261Z,66.10
2022-08-03T18:14:32.346Z,66.00
2022-08-03T18:17:05.170Z,66.10
2022-08-03T18:20:01.949Z,66.10
2022-08-03T18:22:27.141Z,66.10
2022-08-03T18:24:56.257Z,66.10
2022-08-03T18:27:24.473Z,66.30
2022-08-03T18:30:13.135Z,66.30
2022-08-03T18:33:00.922Z,66.10
2022-08-03T18:35:53.028Z,66.20
2022-08-03T18:38:22.203Z,66.20
2022-08-03T18:40:52.208Z,66.10
2022-08-03T18:43:46.276Z,66.20
2022-08-03T18:46:21.576Z,66.20
2022-08-03T18:48:59.328Z,66.20
2022-08-03T18:51:43.440Z,66.20
2022-08-03T18:55:02.335Z,66.30
2022-08-03T18:57:46.590Z,66.40
2022-08-03T19:00:16.960Z,66.40
2022-08-03T19:02:56.861Z,66.40
2022-08-03T19:05:56.456Z,66.40
2022-08-03T19:08:26.084Z,66.50
2022-08-03T19:11:00.997Z,66.40
2022-08-03T19:13:44.426Z,66.40
2022-08-03T19:16:30.914Z,66.30
2022-08-03T19:19:01.472Z,66.30
2022-08-03T19:21:30.857Z,66.30
2022-08-03T19:24:07.884Z,66.30
2022-08-03T19:26:39.712Z,66.30
2022-08-03T19:29:10.774Z,66.20
2022-08-03T19:31:57.950Z,66.40
2022-08-03T19:34:30.606Z,66.30
2022-08-03T19:36:59.474Z,66.40
2022-08-03T19:39:27.537Z,66.40
2022-08-03T19:42:08.053Z,66.40
2022-08-03T19:44:43.067Z,66.40
2022-08-03T19:47:16.890Z,66.40
2022-08-03T19:50:05.059Z,66.40
2022-08-03T19:52:38.563Z,66.40
2022-08-03T19:55:12.108Z,66.40
2022-08-03T19:57:45.606Z,66.40
2022-08-03T20:00:14.211Z,66.30
2022-08-03T20:02:42.999Z,66.40
2022-08-03T20:05:15.049Z,66.40
2022-08-03T20:07:48.612Z,66.40
2022-08-03T20:10:17.980Z,66.40
2022-08-03T20:12:49.792Z,66.40
2022-08-03T20:15:22.281Z,66.40
2022-08-03T20:17:58.936Z,66.40
2022-08-03T20:20:32.810Z,66.40
2022-08-03T20:23:06.683Z,66.40
2022-08-03T20:25:57.020Z,66.50
2022-08-03T20:28:50.136Z,66.40
2022-08-03T20:31:23.796Z,66.50
2022-08-03T20:33:58.351Z,66.60
2022-08-03T20:36:27.018Z,66.60
2022-08-03T20:38:57.696Z,66.50
2022-08-03T20:41:31.180Z,66.50
2022-08-03T20:44:01.934Z,66.50
2022-08-03T20:46:38.537Z,66.60
2022-08-03T20:49:23.096Z,66.60
2022-08-03T20:51:53.228Z,66.60
2022-08-03T20:54:31.156Z,66.60
2022-08-03T20:57:03.577Z,66.60
2022-08-03T20:59:50.043Z,66.60
2022-08-03T21:02:29.203Z,66.60
2022-08-03T21:05:08.600Z,66.60
2022-08-03T21:08:06.517Z,66.60
2022-08-03T21:10:38.292Z,66.70
2022-08-03T21:13:43.782Z,66.70
2022-08-03T21:16:14.984Z,66.70
2022-08-03T21:18:49.993Z,66.70
2022-08-03T21:21:19.749Z,66.80
2022-08-03T21:23:52.846Z,66.70
2022-08-03T21:26:26.159Z,66.70
2022-08-03T21:28:55.490Z,66.80
2022-08-03T21:31:26.280Z,66.70
2022-08-03T21:34:00.958Z,66.70
2022-08-03T21:36:31.814Z,66.70
2022-08-03T21:38:59.580Z,66.70
2022-08-03T21:41:29.830Z,66.70
2022-08-03T21:43:58.033Z,66.80
2022-08-03T21:46:27.915Z,66.80
2022-08-03T21:50:04.479Z,66.70
2022-08-03T21:51:50.584Z,66.70
2022-08-03T21:54:21.006Z,66.70
2022-08-03T21:56:51.202Z,66.70
2022-08-03T21:59:20.847Z,66.70
2022-08-03T22:01:51.491Z,66.70
2022-08-03T22:04:50.301Z,66.70
2022-08-03T22:07:10.749Z,66.70
2022-08-03T22:09:38.353Z,66.70
2022-08-03T22:12:06.549Z,66.70
2022-08-03T22:14:34.146Z,66.70
2022-08-03T22:17:03.343Z,66.70
2022-08-03T22:19:33.835Z,66.60
2022-08-03T22:22:04.756Z,66.60
2022-08-03T22:24:32.863Z,66.70
2022-08-03T22:27:21.233Z,66.70
2022-08-03T22:29:50.980Z,66.70
2022-08-03T22:32:18.470Z,66.70
2022-08-03T22:34:47.707Z,66.70
2022-08-03T22:37:18.737Z,66.60
2022-08-03T22:39:46.945Z,66.60
2022-08-03T22:42:14.729Z,66.70
2022-08-03T22:44:42.177Z,66.60
2022-08-03T22:47:10.665Z,66.60
2022-08-03T22:49:38.837Z,66.60
2022-08-03T22:52:07.629Z,66.60
2022-08-03T22:54:36.115Z,66.60
2022-08-03T22:57:05.421Z,66.60
2022-08-03T22:59:40.440Z,66.60
2022-08-03T23:02:20.885Z,66.60
2022-08-03T23:04:54.717Z,66.60
2022-08-03T23:07:34.500Z,66.60
2022-08-03T23:10:05.252Z,66.70
2022-08-03T23:12:35.751Z,66.60
2022-08-03T23:15:07.333Z,66.60
2022-08-03T23:17:57.702Z,66.60
2022-08-03T23:20:27.041Z,66.60
2022-08-03T23:23:00.410Z,66.60
2022-08-03T23:25:28.150Z,66.60
2022-08-03T23:28:05.376Z,66.60
2022-08-03T23:30:37.402Z,66.60
2022-08-03T23:33:06.807Z,66.60
2022-08-03T23:36:28.621Z,66.50
2022-08-03T23:38:43.893Z,66.60
2022-08-03T23:41:13.799Z,66.60
2022-08-03T23:43:45.273Z,66.50
2022-08-03T23:46:22.682Z,66.50
2022-08-03T23:48:51.289Z,66.50
2022-08-03T23:51:36.714Z,66.50
2022-08-03T23:54:15.338Z,66.50
2022-08-03T23:56:51.560Z,66.50
2022-08-03T23:59:42.696Z,66.50
